Time,TemperatureF,DewpointF,PressureIn,WindDirection,WindDirectionDegrees,WindSpeedMPH,WindSpeedGustMPH,Humidity,HourlyPrecipIn,Conditions,Clouds,dailyrainin,SoftwareType,DateUTC
2013-06-27 00:08:00,75.7,74.0,29.98,SSW,194,0.0,0.0,93,0.00,,,0.00,weatherlink.com 1.10,2013-06-27 05:08:00,
2013-06-27 00:24:00,75.6,74.0,29.97,SSW,194,0.0,0.0,94,0.00,,,0.00,weatherlink.com 1.10,2013-06-27 05:24:00,
2013-06-27 00:39:00,75.2,73.0,29.98,SSW,194,0.0,0.0,93,0.00,,,0.00,weatherlink.com 1.10,2013-06-27 05:39:00,
2013-06-27 00:54:00,75.0,73.0,29.98,SSW,194,0.0,0.0,94,0.00,,,0.00,weatherlink.com 1.10,2013-06-27 05:54:00,
2013-06-27 01:09:00,74.8,73.0,29.98,SSW,194,0.0,0.0,94,0.00,,,0.00,weatherlink.com 1.10,2013-06-27 06:09:00,
2013-06-27 01:24:00,74.7,73.0,29.97,SSW,194,0.0,0.0,94,0.00,,,0.00,weatherlink.com 1.10,2013-06-27 06:24:00,
2013-06-27 01:39:00,74.4,73.0,29.97,SSW,194,0.0,0.0,94,0.00,,,0.00,weatherlink.com 1.10,2013-06-27 06:39:00,
2013-06-27 01:54:00,74.1,72.0,29.98,SSW,194,0.0,0.0,94,0.00,,,0.00,weatherlink.com 1.10,2013-06-27 06:54:00,
2013-06-27 02:09:00,74.1,73.0,29.98,SSW,194,0.0,1.0,95,0.00,,,0.00,weatherlink.com 1.10,2013-06-27 07:09:00,
2013-06-27 02:24:00,74.8,73.0,29.97,South,183,0.0,1.0,95,0.00,,,0.00,weatherlink.com 1.10,2013-06-27 07:24:00,
2013-06-27 02:39:00,75.5,74.0,29.98,South,184,0.0,1.0,95,0.00,,,0.00,weatherlink.com 1.10,2013-06-27 07:39:00,
2013-06-27 02:54:00,75.0,73.0,29.97,South,184,0.0,0.0,94,0.00,,,0.00,weatherlink.com 1.10,2013-06-27 07:54:00,
2013-06-27 03:09:00,74.6,73.0,29.97,South,184,0.0,0.0,94,0.00,,,0.00,weatherlink.com 1.10,2013-06-27 08:09:00,
2013-06-27 03:24:00,74.3,73.0,29.97,South,184,0.0,0.0,94,0.00,,,0.00,weatherlink.com 1.10,2013-06-27 08:24:00,
2013-06-27 03:39:00,74.0,72.0,29.97,South,184,0.0,0.0,94,0.00,,,0.00,weatherlink.com 1.10,2013-06-27 08:39:00,
2013-06-27 03:54:00,73.6,72.0,29.97,South,184,0.0,0.0,95,0.00,,,0.00,weatherlink.com 1.10,2013-06-27 08:54:00,
2013-06-27 04:09:00,73.3,72.0,29.98,South,184,0.0,0.0,95,0.00,,,0.00,weatherlink.com 1.10,2013-06-27 09:09:00,
2013-06-27 04:24:00,73.2,72.0,29.98,South,184,0.0,0.0,95,0.00,,,0.00,weatherlink.com 1.10,2013-06-27 09:24:00,
2013-06-27 04:39:00,73.2,72.0,29.98,South,184,0.0,0.0,95,0.00,,,0.00,weatherlink.com 1.10,2013-06-27 09:39:00,
2013-06-27 04:54:00,73.1,72.0,29.98,South,184,0.0,0.0,95,0.00,,,0.00,weatherlink.com 1.10,2013-06-27 09:54:00,
2013-06-27 05:09:00,72.9,71.0,29.99,South,184,0.0,0.0,95,0.00,,,0.00,weatherlink.com 1.10,2013-06-27 10:09:00,
2013-06-27 05:24:00,72.6,71.0,29.99,South,184,0.0,0.0,95,0.00,,,0.00,weatherlink.com 1.10,2013-06-27 10:24:00,
2013-06-27 05:39:00,72.6,71.0,29.99,South,184,0.0,0.0,95,0.00,,,0.00,weatherlink.com 1.10,2013-06-27 10:39:00,
2013-06-27 05:54:00,72.7,71.0,30.00,South,184,0.0,0.0,95,0.00,,,0.00,weatherlink.com 1.10,2013-06-27 10:54:00,
2013-06-27 06:09:00,72.7,72.0,30.00,South,184,0.0,0.0,96,0.00,,,0.00,weatherlink.com 1.10,2013-06-27 11:09:00,
2013-06-27 06:24:00,72.7,72.0,30.01,South,184,0.0,0.0,96,0.00,,,0.00,weatherlink.com 1.10,2013-06-27 11:24:00,
2013-06-27 06:39:00,72.8,72.0,30.00,South,184,0.0,0.0,96,0.00,,,0.00,weatherlink.com 1.10,2013-06-27 11:39:00,
2013-06-27 06:54:00,73.2,72.0,30.00,South,184,0.0,0.0,96,0.00,,,0.00,weatherlink.com 1.10,2013-06-27 11:54:00,
2013-06-27 07:09:00,75.2,74.0,30.00,South,184,0.0,1.0,96,0.00,,,0.00,weatherlink.com 1.10,2013-06-27 12:09:00,
2013-06-27 07:24:00,77.5,76.0,30.00,South,184,0.0,0.0,95,0.00,,,0.00,weatherlink.com 1.10,2013-06-27 12:24:00,
2013-06-27 07:39:00,79.0,77.0,30.00,SW,214,0.0,1.0,93,0.00,,,0.00,weatherlink.com 1.10,2013-06-27 12:39:00,
2013-06-27 07:54:00,80.5,77.0,30.00,WNW,300,2.0,2.0,89,0.00,,,0.00,weatherlink.com 1.10,2013-06-27 12:54:00,
2013-06-27 08:09:00,81.5,77.0,30.00,NW,308,0.0,3.0,87,0.00,,,0.00,weatherlink.com 1.10,2013-06-27 13:09:00,
2013-06-27 08:24:00,82.3,77.0,30.00,NW,314,4.0,4.0,85,0.00,,,0.00,weatherlink.com 1.10,2013-06-27 13:24:00,
2013-06-27 08:39:00,82.9,78.0,30.01,NW,322,2.0,4.0,84,0.00,,,0.00,weatherlink.com 1.10,2013-06-27 13:39:00,
2013-06-27 08:54:00,83.4,77.0,30.00,NW,316,1.0,8.0,81,0.00,,,0.00,weatherlink.com 1.10,2013-06-27 13:54:00,
2013-06-27 09:10:00,83.9,77.0,30.00,NW,315,2.0,7.0,79,0.00,,,0.00,weatherlink.com 1.10,2013-06-27 14:10:00,
2013-06-27 09:25:00,84.3,77.0,30.00,NW,316,5.0,8.0,78,0.00,,,0.00,weatherlink.com 1.10,2013-06-27 14:25:00,
2013-06-27 09:40:00,84.8,77.0,30.00,NW,304,3.0,8.0,78,0.00,,,0.00,weatherlink.com 1.10,2013-06-27 14:40:00,
2013-06-27 09:55:00,85.2,78.0,30.00,NW,323,2.0,7.0,78,0.00,,,0.00,weatherlink.com 1.10,2013-06-27 14:55:00,
2013-06-27 10:10:00,85.8,77.0,30.00,West,262,1.0,8.0,75,0.00,,,0.00,weatherlink.com 1.10,2013-06-27 15:10:00,
2013-06-27 10:25:00,86.3,77.0,30.00,WNW,300,2.0,9.0,73,0.00,,,0.00,weatherlink.com 1.10,2013-06-27 15:25:00,
2013-06-27 10:40:00,86.9,77.0,30.00,West,266,1.0,7.0,73,0.00,,,0.00,weatherlink.com 1.10,2013-06-27 15:40:00,
2013-06-27 10:55:00,87.8,77.0,30.00,WNW,287,2.0,6.0,71,0.00,,,0.00,weatherlink.com 1.10,2013-06-27 15:55:00,
2013-06-27 11:10:00,89.3,78.0,30.00,NW,305,2.0,3.0,70,0.00,,,0.00,weatherlink.com 1.10,2013-06-27 16:10:00,
2013-06-27 11:25:00,89.2,78.0,29.99,WNW,300,0.0,9.0,70,0.00,,,0.00,weatherlink.com 1.10,2013-06-27 16:25:00,
2013-06-27 11:40:00,90.3,77.0,29.99,NW,311,3.0,4.0,66,0.00,,,0.00,weatherlink.com 1.10,2013-06-27 16:40:00,
2013-06-27 11:55:00,90.0,77.0,29.99,WNW,295,2.0,8.0,66,0.00,,,0.00,weatherlink.com 1.10,2013-06-27 16:55:00,
2013-06-27 12:10:00,91.2,78.0,29.98,SSE,166,2.0,6.0,66,0.00,,,0.00,weatherlink.com 1.10,2013-06-27 17:10:00,
2013-06-27 12:25:00,89.3,77.0,29.98,NW,319,2.0,7.0,66,0.00,,,0.00,weatherlink.com 1.10,2013-06-27 17:25:00,
2013-06-27 12:40:00,90.2,78.0,29.98,NW,310,1.0,6.0,68,0.00,,,0.00,weatherlink.com 1.10,2013-06-27 17:40:00,
2013-06-27 12:55:00,90.1,78.0,29.97,NW,309,1.0,4.0,67,0.00,,,0.00,weatherlink.com 1.10,2013-06-27 17:55:00,
2013-06-27 13:10:00,90.8,78.0,29.98,WNW,293,0.0,6.0,67,0.00,,,0.00,weatherlink.com 1.10,2013-06-27 18:10:00,
2013-06-27 13:25:00,91.4,77.0,29.97,NNW,333,1.0,7.0,62,0.00,,,0.00,weatherlink.com 1.10,2013-06-27 18:25:00,
2013-06-27 13:40:00,91.8,77.0,29.96,SSE,163,1.0,6.0,63,0.00,,,0.00,weatherlink.com 1.10,2013-06-27 18:40:00,
2013-06-27 13:55:00,92.7,77.0,29.95,WNW,302,4.0,6.0,61,0.00,,,0.00,weatherlink.com 1.10,2013-06-27 18:55:00,
2013-06-27 14:10:00,91.7,77.0,29.95,WNW,302,7.0,9.0,62,0.00,,,0.00,weatherlink.com 1.10,2013-06-27 19:10:00,
2013-06-27 14:25:00,93.0,78.0,29.95,SSW,198,0.0,6.0,61,0.00,,,0.00,weatherlink.com 1.10,2013-06-27 19:25:00,
2013-06-27 14:40:00,92.5,78.0,29.95,West,273,1.0,8.0,62,0.00,,,0.00,weatherlink.com 1.10,2013-06-27 19:40:00,
2013-06-27 14:55:00,94.5,77.0,29.95,NE,51,1.0,5.0,58,0.00,,,0.00,weatherlink.com 1.10,2013-06-27 19:55:00,
2013-06-27 15:10:00,95.3,79.0,29.95,WNW,286,0.0,7.0,59,0.00,,,0.00,weatherlink.com 1.10,2013-06-27 20:10:00,
2013-06-27 15:25:00,97.6,78.0,29.94,SW,217,2.0,6.0,54,0.00,,,0.00,weatherlink.com 1.10,2013-06-27 20:25:00,
2013-06-27 15:55:00,96.5,78.0,29.93,West,276,0.0,6.0,56,0.00,,,0.00,weatherlink.com 1.10,2013-06-27 20:55:00,
2013-06-27 16:10:00,96.8,79.0,29.93,West,276,0.0,7.0,56,0.00,,,0.00,weatherlink.com 1.10,2013-06-27 21:10:00,
2013-06-27 16:40:00,95.7,78.0,29.93,West,266,0.0,5.0,57,0.00,,,0.00,weatherlink.com 1.10,2013-06-27 21:40:00,
2013-06-27 16:56:00,95.4,78.0,29.92,WNW,295,1.0,5.0,58,0.00,,,0.00,weatherlink.com 1.10,2013-06-27 21:56:00,
2013-06-27 17:11:00,96.1,79.0,29.91,SW,229,1.0,4.0,58,0.00,,,0.00,weatherlink.com 1.10,2013-06-27 22:11:00,
2013-06-27 17:26:00,96.0,79.0,29.91,SSW,198,0.0,6.0,59,0.00,,,0.00,weatherlink.com 1.10,2013-06-27 22:26:00,
2013-06-27 17:41:00,94.9,79.0,29.91,SE,146,6.0,7.0,60,0.00,,,0.00,weatherlink.com 1.10,2013-06-27 22:41:00,
2013-06-27 17:56:00,93.7,79.0,29.91,South,185,3.0,8.0,62,0.00,,,0.00,weatherlink.com 1.10,2013-06-27 22:56:00,
2013-06-27 18:26:00,93.4,79.0,29.91,South,178,3.0,5.0,63,0.00,,,0.00,weatherlink.com 1.10,2013-06-27 23:26:00,
2013-06-27 18:41:00,93.0,79.0,29.91,SSW,199,3.0,5.0,64,0.00,,,0.00,weatherlink.com 1.10,2013-06-27 23:41:00,
2013-06-27 18:56:00,92.0,79.0,29.91,SSE,156,3.0,7.0,65,0.00,,,0.00,weatherlink.com 1.10,2013-06-27 23:56:00,
2013-06-27 19:11:00,90.9,79.0,29.91,SSE,155,1.0,6.0,67,0.00,,,0.00,weatherlink.com 1.10,2013-06-28 00:11:00,
2013-06-27 19:26:00,90.6,78.0,29.91,South,183,2.0,8.0,66,0.00,,,0.00,weatherlink.com 1.10,2013-06-28 00:26:00,
2013-06-27 19:56:00,87.9,77.0,29.91,South,175,2.0,4.0,70,0.00,,,0.00,weatherlink.com 1.10,2013-06-28 00:56:00,
2013-06-27 20:11:00,86.5,77.0,29.91,South,188,0.0,3.0,72,0.00,,,0.00,weatherlink.com 1.10,2013-06-28 01:11:00,
2013-06-27 20:26:00,85.4,76.0,29.91,SW,214,0.0,2.0,74,0.00,,,0.00,weatherlink.com 1.10,2013-06-28 01:26:00,
2013-06-27 20:41:00,84.4,76.0,29.91,SE,142,0.0,1.0,76,0.00,,,0.00,weatherlink.com 1.10,2013-06-28 01:41:00,
2013-06-27 21:11:00,83.0,76.0,29.91,SSE,165,0.0,0.0,79,0.00,,,0.00,weatherlink.com 1.10,2013-06-28 02:11:00,
2013-06-27 21:26:00,82.3,76.0,29.91,South,184,0.0,1.0,81,0.00,,,0.00,weatherlink.com 1.10,2013-06-28 02:26:00,
2013-06-27 21:41:00,82.0,76.0,29.92,SSW,200,0.0,1.0,81,0.00,,,0.00,weatherlink.com 1.10,2013-06-28 02:41:00,
2013-06-27 21:56:00,81.5,76.0,29.92,SSW,200,0.0,0.0,83,0.00,,,0.00,weatherlink.com 1.10,2013-06-28 02:56:00,
2013-06-27 22:26:00,80.5,76.0,29.93,South,176,0.0,1.0,85,0.00,,,0.00,weatherlink.com 1.10,2013-06-28 03:26:00,
2013-06-27 22:56:00,80.1,76.0,29.93,South,186,0.0,0.0,86,0.00,,,0.00,weatherlink.com 1.10,2013-06-28 03:56:00,
2013-06-27 23:11:00,79.9,76.0,29.93,South,184,0.0,0.0,87,0.00,,,0.00,weatherlink.com 1.10,2013-06-28 04:11:00,
2013-06-27 23:26:00,79.6,76.0,29.93,South,184,0.0,0.0,88,0.00,,,0.00,weatherlink.com 1.10,2013-06-28 04:26:00,
2013-06-27 23:41:00,79.4,76.0,29.94,South,184,0.0,0.0,89,0.00,,,0.00,weatherlink.com 1.10,2013-06-28 04:41:00,
2013-06-27 23:56:00,78.9,76.0,29.95,South,185,0.0,0.0,89,0.00,,,0.00,weatherlink.com 1.10,2013-06-28 04:56:00,